Time;durP1;ratioP1;P1;durP2;ratioP2;P2;SDS_P1;SDS_P2;PMS_P1;PMS_P2;Temp;Humidity;BMP_temperature;BMP_pressure;BME280_temperature;BME280_humidity;BME280_pressure;Samples;Min_cycle;Max_cycle;Signal;HPM_P1;HPM_P2
2023/11/23 00:00:08;;;;;;;0.63;0.63;;;;;;;3.24;54.97;93013.69;4911074;29;20039;-79
2023/11/23 00:02:34;;;;;;;0.88;0.70;;;;;;;3.23;54.89;93002.56;4918652;29;20486;-81
2023/11/23 00:05:00;;;;;;;0.90;0.73;;;;;;;3.23;53.47;93001.78;4917701;29;20036;-81
2023/11/23 00:07:26;;;;;;;0.70;0.70;;;;;;;3.23;52.78;92997.41;4918845;29;20052;-81
2023/11/23 00:09:51;;;;;;;0.60;0.60;;;;;;;3.24;52.96;92993.00;4918030;29;20024;-81
2023/11/23 00:12:18;;;;;;;0.82;0.70;;;;;;;3.24;54.13;92990.41;4918530;29;20050;-80
2023/11/23 00:14:44;;;;;;;0.93;0.80;;;;;;;3.22;54.53;92997.63;4922529;29;20028;-80
2023/11/23 00:17:10;;;;;;;0.93;0.80;;;;;;;3.22;55.12;92992.44;4939339;29;20046;-81
2023/11/23 00:19:35;;;;;;;0.80;0.80;;;;;;;3.19;55.47;92996.28;4939301;29;20039;-80
2023/11/23 00:22:01;;;;;;;0.70;0.70;;;;;;;3.19;55.63;93000.66;4928158;29;20461;-80
2023/11/23 00:24:26;;;;;;;0.70;0.70;;;;;;;3.14;55.83;92993.59;4944666;29;20063;-80
2023/11/23 00:26:53;;;;;;;1.58;0.80;;;;;;;3.12;56.13;92996.41;4955163;28;20043;-80
2023/11/23 00:29:22;;;;;;;0.75;0.75;;;;;;;3.10;56.64;92985.47;4938628;29;20036;-80
2023/11/23 00:31:48;;;;;;;1.13;0.90;;;;;;;3.07;56.92;92977.41;4939461;29;20515;-81
2023/11/23 00:34:14;;;;;;;1.15;0.82;;;;;;;3.09;56.27;92986.50;4961788;28;20046;-80
2023/11/23 00:36:40;;;;;;;0.85;0.80;;;;;;;3.09;55.20;92986.50;4948990;29;20036;-80
2023/11/23 00:39:09;;;;;;;1.02;0.70;;;;;;;3.04;55.84;92983.03;4948248;29;20039;-80
2023/11/23 00:41:36;;;;;;;1.77;0.90;;;;;;;2.96;53.54;92980.78;4954566;28;20035;-81
2023/11/23 00:44:05;;;;;;;0.80;0.77;;;;;;;3.00;52.37;92990.47;4955924;29;20524;-80
2023/11/23 00:46:31;;;;;;;0.52;0.52;;;;;;;2.98;52.34;92978.78;4954541;29;20134;-81
2023/11/23 00:48:59;;;;;;;0.50;0.50;;;;;;;2.97;53.54;92982.34;4955621;28;20051;-79
2023/11/23 00:51:26;;;;;;;0.63;0.63;;;;;;;2.91;53.81;92981.47;4939559;29;20036;-80
2023/11/23 00:53:52;;;;;;;0.60;0.60;;;;;;;2.83;53.91;92974.06;4957140;29;20035;-80
2023/11/23 00:56:17;;;;;;;0.90;0.80;;;;;;;2.82;53.77;92975.88;4924745;29;20043;-80
2023/11/23 00:58:44;;;;;;;0.57;0.52;;;;;;;2.81;53.82;92984.63;4956390;28;20027;-80
2023/11/23 01:01:17;;;;;;;0.60;0.60;;;;;;;2.81;53.16;92978.66;4937797;29;20043;-80
2023/11/23 01:03:44;;;;;;;0.57;0.57;;;;;;;2.81;53.20;92973.50;4939108;29;20518;-80
2023/11/23 01:06:09;;;;;;;0.80;0.80;;;;;;;2.79;53.52;92978.09;4939489;29;20035;-80
2023/11/23 01:08:35;;;;;;;0.60;0.60;;;;;;;2.83;53.06;92976.63;4946243;29;20114;-80
2023/11/23 01:11:01;;;;;;;0.80;0.80;;;;;;;2.86;52.92;92971.00;4946881;29;20028;-80
2023/11/23 01:13:27;;;;;;;0.70;0.70;;;;;;;2.87;52.71;92963.03;4957111;29;20043;-81
2023/11/23 01:15:53;;;;;;;1.60;0.90;;;;;;;2.92;52.11;92960.53;4949493;29;20055;-80
2023/11/23 01:18:19;;;;;;;0.65;0.65;;;;;;;3.00;49.19;92964.59;4953808;28;20035;-79
2023/11/23 01:20:44;;;;;;;0.90;0.80;;;;;;;3.04;50.06;92964.91;4938988;29;20407;-80
2023/11/23 01:23:11;;;;;;;0.80;0.80;;;;;;;3.00;51.05;92962.00;4956140;29;20050;-81
2023/11/23 01:25:36;;;;;;;0.80;0.80;;;;;;;3.01;50.77;92958.41;4955984;29;20035;-80
2023/11/23 01:28:02;;;;;;;0.60;0.60;;;;;;;3.00;50.75;92956.06;4940530;29;20582;-80
2023/11/23 01:30:28;;;;;;;0.60;0.60;;;;;;;2.96;51.15;92949.75;4927538;29;20031;-80
2023/11/23 01:32:53;;;;;;;0.77;0.65;;;;;;;2.92;50.81;92949.41;4937426;29;20035;-81
2023/11/23 01:35:22;;;;;;;0.77;0.70;;;;;;;2.92;51.14;92952.78;4938231;29;20071;-81
2023/11/23 01:37:49;;;;;;;0.70;0.70;;;;;;;2.89;50.73;92939.53;4938260;29;20497;-80
2023/11/23 01:40:15;;;;;;;0.95;0.70;;;;;;;2.84;50.22;92935.06;4954932;29;20032;-81
2023/11/23 01:42:41;;;;;;;0.68;0.68;;;;;;;2.84;50.13;92942.81;4938462;29;20070;-80
2023/11/23 01:45:07;;;;;;;0.60;0.60;;;;;;;2.87;48.81;92946.75;4945822;29;20027;-80
2023/11/23 01:47:39;;;;;;;0.50;0.50;;;;;;;2.80;48.66;92933.94;4955012;29;20042;-81
2023/11/23 01:50:07;;;;;;;0.82;0.70;;;;;;;2.82;48.62;92938.88;4940453;29;20039;-80
2023/11/23 01:52:32;;;;;;;0.50;0.50;;;;;;;2.77;49.47;92936.97;4955161;28;20067;-80
2023/11/23 01:54:58;;;;;;;0.82;0.60;;;;;;;2.76;50.70;92943.16;4955053;29;20109;-80
2023/11/23 01:57:27;;;;;;;1.13;0.88;;;;;;;2.75;52.03;92938.19;4949404;29;20032;-80
2023/11/23 01:59:54;;;;;;;0.70;0.70;;;;;;;2.73;52.68;92945.41;4921506;29;20031;-80
2023/11/23 02:02:19;;;;;;;0.50;0.50;;;;;;;2.71;52.87;92954.16;4938274;29;20122;-80
2023/11/23 02:04:48;;;;;;;0.60;0.60;;;;;;;2.70;53.79;92947.44;4947259;29;20074;-80
2023/11/23 02:07:16;;;;;;;0.60;0.60;;;;;;;2.68;53.83;92944.28;4954722;29;20030;-80
2023/11/23 02:09:41;;;;;;;0.68;0.68;;;;;;;2.67;53.42;92947.09;4930424;29;20503;-80
2023/11/23 02:12:09;;;;;;;0.73;0.70;;;;;;;2.66;52.55;92956.66;4937744;29;20046;-80
2023/11/23 02:14:35;;;;;;;0.82;0.65;;;;;;;2.65;51.45;92952.47;4923372;29;20412;-80
2023/11/23 02:17:17;;;;;;;0.70;0.70;;;;;;;2.58;52.19;92936.31;4940457;28;20574;-80
2023/11/23 02:19:47;;;;;;;0.80;0.80;;;;;;;2.61;51.55;92935.88;4938653;29;20514;-80
2023/11/23 02:22:14;;;;;;;1.30;0.70;;;;;;;2.60;52.96;92931.69;4938955;29;20039;-79
2023/11/23 02:24:40;;;;;;;0.70;0.70;;;;;;;2.56;52.98;92925.41;4947922;29;20503;-80
2023/11/23 02:27:10;;;;;;;1.48;0.80;;;;;;;2.52;53.57;92923.50;4937475;29;20035;-80
2023/11/23 02:29:37;;;;;;;0.70;0.70;;;;;;;2.51;52.94;92927.88;4955720;29;20031;-80
2023/11/23 02:32:12;;;;;;;0.60;0.60;;;;;;;2.48;52.34;92929.13;4955252;29;20039;-80
2023/11/23 02:34:38;;;;;;;0.60;0.60;;;;;;;2.49;51.76;92929.91;4954814;29;20407;-80
2023/11/23 02:37:04;;;;;;;0.73;0.73;;;;;;;2.47;51.49;92924.94;4943468;29;20039;-80
2023/11/23 02:39:31;;;;;;;0.60;0.60;;;;;;;2.44;51.81;92916.88;4938139;29;20325;-80
2023/11/23 02:41:57;;;;;;;0.68;0.68;;;;;;;2.46;52.03;92927.78;4938623;29;20035;-80
2023/11/23 02:44:23;;;;;;;0.60;0.60;;;;;;;2.40;51.81;92923.50;4953773;29;20039;-80
2023/11/23 02:46:50;;;;;;;1.33;0.70;;;;;;;2.37;52.43;92922.16;4955199;28;20063;-80
2023/11/23 02:49:18;;;;;;;0.70;0.70;;;;;;;2.33;52.56;92920.25;4953948;29;20435;-80
2023/11/23 02:51:45;;;;;;;0.70;0.70;;;;;;;2.38;52.62;92922.94;4953589;29;20046;-80
2023/11/23 02:54:10;;;;;;;0.60;0.60;;;;;;;2.33;53.65;92915.09;4936532;29;20082;-80
2023/11/23 02:56:37;;;;;;;0.52;0.52;;;;;;;2.36;52.39;92932.72;4954266;29;20023;-80
2023/11/23 02:59:03;;;;;;;1.17;0.82;;;;;;;2.32;51.68;92932.38;4952939;29;20376;-80
2023/11/23 03:01:32;;;;;;;0.60;0.60;;;;;;;2.31;51.77;92935.19;4954798;29;20484;-80
2023/11/23 03:03:58;;;;;;;0.70;0.70;;;;;;;2.28;51.37;92932.03;4954382;28;20892;-80
2023/11/23 03:06:23;;;;;;;0.70;0.70;;;;;;;2.28;51.44;92926.88;4936317;29;20361;-80
2023/11/23 03:08:51;;;;;;;0.70;0.70;;;;;;;2.24;52.20;92927.53;4944357;29;20039;-80
2023/11/23 03:11:21;;;;;;;0.73;0.73;;;;;;;2.28;52.43;92939.00;4936099;29;20031;-79
2023/11/23 03:13:47;;;;;;;0.65;0.60;;;;;;;2.28;52.13;92944.19;4953591;29;20526;-80
2023/11/23 03:16:13;;;;;;;0.60;0.60;;;;;;;2.28;51.78;92942.38;4932994;29;20060;-79
2023/11/23 03:18:39;;;;;;;0.50;0.50;;;;;;;2.29;51.22;92946.50;4950809;29;20631;-80
2023/11/23 03:21:05;;;;;;;0.60;0.60;;;;;;;2.27;50.97;92943.41;4945107;29;20048;-80
2023/11/23 03:23:31;;;;;;;0.70;0.70;;;;;;;2.29;51.48;92946.50;4927602;29;20051;-80
2023/11/23 03:25:57;;;;;;;0.60;0.60;;;;;;;2.31;51.66;92953.28;4955209;29;20027;-80
2023/11/23 03:28:24;;;;;;;0.70;0.70;;;;;;;2.33;51.62;92951.25;4954273;29;20364;-80
2023/11/23 03:30:50;;;;;;;0.55;0.55;;;;;;;2.33;52.43;92948.66;4938578;29;20066;-80
2023/11/23 03:33:16;;;;;;;0.50;0.50;;;;;;;2.30;51.95;92952.50;4929383;29;20040;-80
2023/11/23 03:35:41;;;;;;;0.80;0.80;;;;;;;2.29;51.54;92949.09;4936531;29;20034;-80
2023/11/23 03:38:07;;;;;;;0.75;0.70;;;;;;;2.29;51.71;92948.31;4954540;28;20511;-80
2023/11/23 03:40:33;;;;;;;0.60;0.60;;;;;;;2.29;51.59;92948.31;4954401;29;20418;-80
2023/11/23 03:42:59;;;;;;;0.80;0.80;;;;;;;2.26;51.81;92944.38;4950924;29;20067;-80
2023/11/23 03:45:25;;;;;;;0.70;0.70;;;;;;;2.25;51.15;92947.19;4950336;29;20042;-80
2023/11/23 03:47:52;;;;;;;0.70;0.70;;;;;;;2.28;50.71;92950.13;4955959;29;20035;-80
2023/11/23 03:50:18;;;;;;;0.60;0.60;;;;;;;2.35;51.25;92957.78;4954879;29;20030;-80
2023/11/23 03:52:43;;;;;;;0.73;0.70;;;;;;;2.35;51.93;92960.34;4953388;29;20035;-80
2023/11/23 03:55:09;;;;;;;0.70;0.70;;;;;;;2.34;51.02;92963.16;4942159;29;20035;-79
2023/11/23 03:57:39;;;;;;;0.60;0.60;;;;;;;2.36;50.45;92967.06;4933161;29;20043;-80
2023/11/23 04:00:06;;;;;;;0.60;0.60;;;;;;;2.33;50.90;92964.16;4946195;29;20028;-80
2023/11/23 04:02:34;;;;;;;0.60;0.60;;;;;;;2.34;50.27;92978.66;4936917;29;20120;-80
2023/11/23 04:04:59;;;;;;;0.70;0.70;;;;;;;2.26;50.15;92962.47;4928592;28;20420;-80
2023/11/23 04:07:25;;;;;;;1.05;0.80;;;;;;;2.34;49.82;92973.47;4902315;29;20061;-80
2023/11/23 04:09:50;;;;;;;0.80;0.80;;;;;;;2.34;50.01;92963.16;4943770;29;20027;-80
2023/11/23 04:12:16;;;;;;;0.60;0.60;;;;;;;2.35;49.75;92959.56;4920625;29;20405;-80
2023/11/23 04:14:42;;;;;;;0.60;0.60;;;;;;;2.36;49.33;92953.38;4936408;29;20031;-78
2023/11/23 04:17:07;;;;;;;0.60;0.60;;;;;;;2.39;49.15;92945.19;4955827;28;20050;-80
2023/11/23 04:19:33;;;;;;;0.63;0.63;;;;;;;2.39;50.38;92950.38;4957031;29;20051;-80
2023/11/23 04:22:03;;;;;;;0.70;0.70;;;;;;;2.37;50.93;92949.81;4957031;29;20047;-81
2023/11/23 04:24:28;;;;;;;0.60;0.60;;;;;;;2.36;51.26;92956.75;4956750;29;20470;-81
2023/11/23 04:26:54;;;;;;;0.55;0.55;;;;;;;2.37;51.44;92949.81;4958170;28;20118;-79
2023/11/23 04:29:20;;;;;;;0.70;0.70;;;;;;;2.37;51.88;92949.81;4939974;29;20372;-79
2023/11/23 04:31:45;;;;;;;0.85;0.63;;;;;;;2.39;52.32;92955.53;4966134;28;20090;-79
2023/11/23 04:34:12;;;;;;;0.70;0.60;;;;;;;2.41;53.27;92961.25;4956347;29;20047;-80
2023/11/23 04:36:38;;;;;;;0.60;0.60;;;;;;;2.40;52.65;92960.47;4949060;29;20050;-79
2023/11/23 04:39:05;;;;;;;0.60;0.60;;;;;;;2.37;53.28;92957.56;4956024;28;20114;-80
2023/11/23 04:41:31;;;;;;;0.65;0.63;;;;;;;2.35;52.89;92952.59;4956942;29;20456;-79
2023/11/23 04:43:56;;;;;;;0.70;0.70;;;;;;;2.35;51.91;92954.41;4956510;29;20135;-79
2023/11/23 04:46:22;;;;;;;0.60;0.60;;;;;;;2.34;51.31;92950.22;4938303;29;20114;-80
2023/11/23 04:48:48;;;;;;;0.60;0.60;;;;;;;2.30;50.58;92952.50;4954577;28;20043;-79
2023/11/23 04:51:17;;;;;;;0.70;0.70;;;;;;;2.34;50.21;92955.41;4923560;29;20027;-80
2023/11/23 04:53:42;;;;;;;0.70;0.70;;;;;;;2.35;49.47;92959.56;4939765;29;20349;-80
2023/11/23 04:56:08;;;;;;;0.50;0.50;;;;;;;2.37;49.44;92949.81;4935128;29;20389;-80
2023/11/23 04:58:34;;;;;;;0.60;0.60;;;;;;;2.37;49.20;92953.16;4938810;29;20059;-79
2023/11/23 05:01:02;;;;;;;0.60;0.60;;;;;;;2.33;49.75;92943.50;4922992;29;20134;-80
2023/11/23 05:03:28;;;;;;;0.85;0.80;;;;;;;2.34;50.41;92947.66;4950169;29;20067;-80
2023/11/23 05:05:57;;;;;;;0.70;0.70;;;;;;;2.35;50.91;92951.81;4938835;29;20038;-80
2023/11/23 05:08:22;;;;;;;0.80;0.73;;;;;;;2.34;50.69;92951.00;4938450;29;20058;-78
2023/11/23 05:10:48;;;;;;;0.50;0.50;;;;;;;2.38;49.96;92954.72;4947399;29;20027;-79
2023/11/23 05:13:14;;;;;;;0.60;0.60;;;;;;;2.35;49.07;92949.25;4948230;29;20090;-79
2023/11/23 05:15:40;;;;;;;0.50;0.50;;;;;;;2.38;49.47;92948.78;4947511;29;20090;-79
2023/11/23 05:18:06;;;;;;;0.60;0.60;;;;;;;2.41;50.56;92964.63;4937806;29;20063;-79
2023/11/23 05:20:31;;;;;;;0.60;0.60;;;;;;;2.40;52.48;92967.44;4953884;29;20494;-78
2023/11/23 05:22:57;;;;;;;0.60;0.60;;;;;;;2.40;52.64;92970.00;4921398;29;20140;-79
2023/11/23 05:25:22;;;;;;;0.75;0.75;;;;;;;2.37;52.43;92967.88;4935937;29;20035;-81
2023/11/23 05:27:48;;;;;;;0.60;0.60;;;;;;;2.37;52.66;92978.22;4950685;28;20058;-81
2023/11/23 05:30:14;;;;;;;0.60;0.60;;;;;;;2.37;53.67;92978.22;4949051;28;20036;-79
2023/11/23 05:32:39;;;;;;;0.60;0.60;;;;;;;2.38;55.24;92974.63;4954057;29;20050;-81
2023/11/23 05:35:07;;;;;;;1.05;0.75;;;;;;;2.33;56.92;92961.59;4956019;28;20066;-85
2023/11/23 05:37:33;;;;;;;0.70;0.70;;;;;;;2.39;57.19;92965.88;4936809;29;20539;-82
2023/11/23 05:39:59;;;;;;;0.95;0.82;;;;;;;2.39;56.43;92968.44;4947180;29;20118;-81
2023/11/23 05:42:26;;;;;;;0.63;0.63;;;;;;;2.40;56.06;92970.00;4953056;29;20031;-81
2023/11/23 05:44:52;;;;;;;0.60;0.60;;;;;;;2.40;55.77;92977.75;4953616;28;20032;-81
2023/11/23 05:47:18;;;;;;;0.60;0.60;;;;;;;2.40;56.51;92977.75;4951578;28;20129;-81
2023/11/23 05:49:44;;;;;;;0.63;0.63;;;;;;;2.42;55.29;92986.09;4950106;29;20083;-80
2023/11/23 05:52:09;;;;;;;0.75;0.70;;;;;;;2.44;54.86;92989.22;4933680;28;20990;-79
2023/11/23 05:54:35;;;;;;;0.60;0.60;;;;;;;2.45;54.34;92994.16;4945822;29;20038;-82
2023/11/23 05:57:01;;;;;;;0.60;0.60;;;;;;;2.46;54.33;92987.22;4955160;28;20054;-78
2023/11/23 05:59:28;;;;;;;0.60;0.60;;;;;;;2.48;54.38;92990.38;4949918;29;20038;-81
2023/11/23 06:01:54;;;;;;;0.65;0.65;;;;;;;2.48;54.33;92988.56;4933168;29;20046;-79
2023/11/23 06:04:20;;;;;;;0.75;0.60;;;;;;;2.51;55.51;93005.41;4934982;29;20742;-78
2023/11/23 06:06:45;;;;;;;0.73;0.68;;;;;;;2.55;55.03;93006.53;4954976;29;20053;-79
2023/11/23 06:09:11;;;;;;;0.75;0.63;;;;;;;2.55;55.07;93000.59;4957523;29;20042;-79
2023/11/23 06:11:37;;;;;;;0.60;0.60;;;;;;;2.54;55.33;92999.00;4956025;29;20094;-79
2023/11/23 06:14:03;;;;;;;0.50;0.50;;;;;;;2.53;53.66;93013.72;4945694;29;20034;-80
2023/11/23 06:16:28;;;;;;;0.60;0.60;;;;;;;2.53;52.45;93018.13;4939482;29;20417;-78
2023/11/23 06:18:54;;;;;;;0.60;0.60;;;;;;;2.51;51.01;93020.91;4955271;29;20032;-80
2023/11/23 06:21:20;;;;;;;0.60;0.57;;;;;;;2.54;51.23;93023.06;4958600;29;20043;-79
2023/11/23 06:23:47;;;;;;;0.55;0.55;;;;;;;2.54;51.43;93015.28;4957090;29;20089;-79
2023/11/23 06:26:13;;;;;;;0.90;0.70;;;;;;;2.56;50.74;93013.28;4958097;29;20055;-79
2023/11/23 06:28:39;;;;;;;0.55;0.55;;;;;;;2.57;51.49;93019.22;4957473;28;20038;-80
2023/11/23 06:31:05;;;;;;;0.60;0.60;;;;;;;2.61;50.55;93017.78;4957503;29;20035;-79
2023/11/23 06:33:31;;;;;;;0.60;0.60;;;;;;;2.61;50.44;93021.16;4958223;29;20023;-79
2023/11/23 06:35:57;;;;;;;1.02;0.93;;;;;;;2.60;51.66;93024.75;4939457;29;20055;-79
2023/11/23 06:38:24;;;;;;;1.15;0.88;;;;;;;2.60;52.19;93022.16;4956645;29;20046;-79
2023/11/23 06:40:50;;;;;;;1.00;0.90;;;;;;;2.64;50.60;93015.53;4954794;28;20044;-79
2023/11/23 06:43:15;;;;;;;1.77;1.10;;;;;;;2.65;50.07;93017.09;4953735;29;20063;-77
2023/11/23 06:45:41;;;;;;;1.10;1.00;;;;;;;2.67;49.50;93024.66;4944286;29;20122;-77
2023/11/23 06:48:07;;;;;;;0.70;0.70;;;;;;;2.70;49.49;93029.34;4953362;29;20038;-77
2023/11/23 06:50:33;;;;;;;1.98;0.80;;;;;;;2.76;48.52;93019.94;4928548;29;20039;-79
2023/11/23 06:53:01;;;;;;;1.00;0.90;;;;;;;2.87;47.00;93024.31;4955568;28;20058;-79
2023/11/23 06:55:27;;;;;;;1.13;1.00;;;;;;;3.00;47.22;93034.44;4956491;29;20039;-79
2023/11/23 06:57:52;;;;;;;1.42;1.02;;;;;;;3.91;48.08;93039.84;4956210;28;20027;-79
2023/11/23 07:00:22;;;;;;;0.95;0.85;;;;;;;5.11;46.43;93026.75;4956315;29;20051;-79
2023/11/23 07:02:50;;;;;;;0.73;0.73;;;;;;;6.25;44.50;93033.00;4956042;29;20059;-79
2023/11/23 07:05:17;;;;;;;0.80;0.80;;;;;;;7.02;40.65;93036.22;4958297;29;20385;-80
2023/11/23 07:07:43;;;;;;;0.70;0.70;;;;;;;8.03;38.72;93042.22;4938317;29;20090;-79
2023/11/23 07:10:09;;;;;;;1.13;0.93;;;;;;;8.88;36.88;93041.84;4949830;29;20031;-79
2023/11/23 07:12:35;;;;;;;3.35;1.67;;;;;;;9.71;34.27;93034.66;4919484;29;20023;-78
2023/11/23 07:15:01;;;;;;;2.38;1.50;;;;;;;10.54;32.30;93034.00;4949417;29;20507;-79
2023/11/23 07:17:26;;;;;;;0.82;0.80;;;;;;;11.12;31.23;93028.06;4943805;29;20035;-78
2023/11/23 07:19:52;;;;;;;1.35;0.90;;;;;;;11.69;29.50;93030.16;4956664;28;20031;-79
2023/11/23 07:22:18;;;;;;;0.70;0.70;;;;;;;12.37;29.30;93023.84;4940793;29;20041;-80
2023/11/23 07:24:43;;;;;;;1.48;0.98;;;;;;;13.18;27.93;93026.31;4937705;29;20047;-78
2023/11/23 07:27:09;;;;;;;0.88;0.82;;;;;;;13.83;27.26;93025.44;4953980;28;20082;-78
2023/11/23 07:29:34;;;;;;;0.70;0.70;;;;;;;14.54;26.01;93039.00;4938484;29;20126;-78
2023/11/23 07:32:00;;;;;;;0.52;0.50;;;;;;;14.82;25.72;93033.69;4937946;29;20035;-78
2023/11/23 07:34:26;;;;;;;0.60;0.60;;;;;;;15.52;25.28;93038.31;4935613;29;20448;-78
2023/11/23 07:36:51;;;;;;;0.32;0.32;;;;;;;16.44;23.78;93043.00;4951736;29;20568;-78
2023/11/23 07:39:17;;;;;;;0.60;0.60;;;;;;;17.62;22.98;93052.63;4939178;29;20036;-78
2023/11/23 07:41:43;;;;;;;0.73;0.70;;;;;;;17.80;23.23;93042.75;4937290;29;20059;-79
2023/11/23 07:44:09;;;;;;;0.50;0.50;;;;;;;17.26;24.36;93046.63;4940405;29;20050;-77
2023/11/23 07:46:35;;;;;;;1.00;0.63;;;;;;;16.68;25.00;93047.84;4957053;29;20027;-79
2023/11/23 07:49:01;;;;;;;0.60;0.60;;;;;;;17.17;25.65;93056.44;4938679;29;20118;-78
2023/11/23 07:51:26;;;;;;;0.40;0.40;;;;;;;17.28;24.79;93047.09;4958284;28;20031;-79
2023/11/23 07:53:52;;;;;;;0.65;0.63;;;;;;;17.43;23.46;93045.81;4956961;29;20043;-78
2023/11/23 07:56:18;;;;;;;0.55;0.55;;;;;;;18.01;22.45;93048.16;4959490;29;20042;-79
2023/11/23 07:58:45;;;;;;;0.50;0.50;;;;;;;18.25;22.04;93034.34;4922882;29;20059;-79
2023/11/23 08:01:10;;;;;;;0.70;0.70;;;;;;;18.98;20.96;93026.09;4953503;29;20026;-80
2023/11/23 08:03:36;;;;;;;0.60;0.50;;;;;;;19.51;20.92;93029.03;4928515;29;20039;-79
2023/11/23 08:06:01;;;;;;;0.85;0.80;;;;;;;19.73;20.46;93031.31;4941116;29;20547;-80
2023/11/23 08:08:27;;;;;;;0.43;0.40;;;;;;;20.04;20.33;93018.59;4923701;29;20043;-79
2023/11/23 08:10:53;;;;;;;0.60;0.60;;;;;;;21.19;18.45;93022.78;4925933;29;20048;-79
2023/11/23 08:13:20;;;;;;;0.82;0.80;;;;;;;21.66;17.98;93035.44;4960963;29;20101;-79
2023/11/23 08:15:46;;;;;;;0.70;0.70;;;;;;;22.21;17.58;93031.09;4940617;29;20563;-79
2023/11/23 08:18:12;;;;;;;0.70;0.68;;;;;;;21.44;16.07;93030.69;4927680;29;20495;-79
2023/11/23 08:20:38;;;;;;;0.60;0.60;;;;;;;21.65;17.91;93035.78;4962467;29;20080;-78
2023/11/23 08:23:04;;;;;;;1.00;0.80;;;;;;;20.42;18.24;93034.22;4960748;29;20035;-78
2023/11/23 08:25:30;;;;;;;1.15;0.80;;;;;;;21.55;18.16;93037.84;4943157;29;20392;-79
2023/11/23 08:27:57;;;;;;;1.02;0.70;;;;;;;20.44;18.44;93034.66;4942460;29;20040;-79
2023/11/23 08:30:23;;;;;;;0.70;0.70;;;;;;;21.09;18.97;93036.56;4957898;29;20035;-81
2023/11/23 08:32:48;;;;;;;0.82;0.82;;;;;;;20.96;18.61;93041.91;4950768;29;20573;-81
2023/11/23 08:35:14;;;;;;;0.60;0.60;;;;;;;21.33;18.80;93028.47;4940594;29;20039;-82
2023/11/23 08:37:39;;;;;;;0.63;0.60;;;;;;;20.90;18.69;93037.16;4944395;29;20520;-83
2023/11/23 08:40:06;;;;;;;0.60;0.60;;;;;;;19.99;20.30;93032.13;4952109;28;20101;-82
2023/11/23 08:42:33;;;;;;;1.05;0.70;;;;;;;19.19;22.00;93031.34;4938556;29;20043;-80
2023/11/23 08:44:59;;;;;;;0.65;0.63;;;;;;;18.20;23.31;93031.88;4947030;29;20051;-80
2023/11/23 08:47:24;;;;;;;0.40;0.40;;;;;;;16.26;22.16;93030.84;4955407;28;20487;-79
2023/11/23 08:49:50;;;;;;;0.68;0.60;;;;;;;14.87;25.38;93029.06;4921499;29;20083;-80
2023/11/23 08:52:16;;;;;;;0.90;0.50;;;;;;;14.59;25.51;93025.75;4952484;29;20039;-78
2023/11/23 08:54:42;;;;;;;0.80;0.60;;;;;;;13.54;25.98;93034.38;4951865;29;20054;-79
2023/11/23 08:57:08;;;;;;;1.35;0.90;;;;;;;13.19;28.13;93033.09;4927488;29;20579;-78
2023/11/23 08:59:37;;;;;;;0.70;0.70;;;;;;;13.19;26.92;93038.38;4941289;28;20039;-79
2023/11/23 09:02:05;;;;;;;0.73;0.65;;;;;;;12.89;26.54;93035.16;4938009;28;20054;-79
2023/11/23 09:04:36;;;;;;;0.68;0.60;;;;;;;12.73;26.49;93031.22;4949424;29;20031;-80
2023/11/23 09:07:02;;;;;;;0.98;0.80;;;;;;;12.77;27.07;93032.97;4929688;28;20039;-80
2023/11/23 09:09:28;;;;;;;0.75;0.70;;;;;;;12.67;27.41;93026.00;4955643;29;20019;-80
2023/11/23 09:11:55;;;;;;;0.60;0.60;;;;;;;12.38;28.84;93028.00;4939547;29;20047;-81
2023/11/23 09:14:20;;;;;;;1.10;0.90;;;;;;;12.77;28.90;93032.97;4961682;28;20178;-80
2023/11/23 09:16:46;;;;;;;0.95;0.85;;;;;;;12.77;29.43;93026.97;4955556;29;20071;-80
2023/11/23 09:19:12;;;;;;;1.10;0.80;;;;;;;12.44;29.84;93029.50;4938737;29;20622;-80
2023/11/23 09:21:37;;;;;;;0.63;0.63;;;;;;;12.51;30.41;93027.31;4938893;29;20310;-78
2023/11/23 09:24:05;;;;;;;0.93;0.80;;;;;;;12.33;28.42;93033.34;4947311;29;20035;-80
2023/11/23 09:26:32;;;;;;;1.42;0.80;;;;;;;12.35;29.60;93025.97;4955581;29;20031;-79
2023/11/23 09:28:58;;;;;;;1.83;1.00;;;;;;;12.34;31.52;93019.94;4941118;29;20046;-78
2023/11/23 09:31:29;;;;;;;1.10;0.90;;;;;;;12.15;27.91;93016.50;4942244;29;20044;-78
2023/11/23 09:33:55;;;;;;;1.23;0.95;;;;;;;12.35;31.17;93025.97;4920388;29;20035;-79
2023/11/23 09:36:21;;;;;;;0.60;0.60;;;;;;;12.47;30.93;93031.56;4942189;29;20059;-78
2023/11/23 09:38:49;;;;;;;1.40;0.77;;;;;;;12.61;29.75;93029.81;4954406;29;20105;-78
2023/11/23 09:41:18;;;;;;;0.75;0.75;;;;;;;12.73;28.42;93036.47;4949691;29;20035;-78
2023/11/23 09:43:49;;;;;;;1.02;0.82;;;;;;;12.37;28.76;93029.88;4961742;28;20130;-78
2023/11/23 09:46:16;;;;;;;2.67;0.88;;;;;;;11.81;30.32;93025.28;4942569;29;20074;-78
2023/11/23 09:48:44;;;;;;;0.80;0.80;;;;;;;11.73;29.50;93021.44;4937117;29;20036;-78
2023/11/23 09:51:10;;;;;;;0.70;0.70;;;;;;;11.37;30.69;93024.44;4934470;29;20646;-78
2023/11/23 09:53:43;;;;;;;0.73;0.65;;;;;;;11.92;30.49;93018.13;4943518;29;20027;-79
2023/11/23 09:56:08;;;;;;;1.05;0.80;;;;;;;11.78;28.46;93012.75;4943479;29;20459;-78
2023/11/23 09:58:34;;;;;;;1.15;1.00;;;;;;;11.75;34.54;93008.81;4937923;29;20031;-79
2023/11/23 10:01:03;;;;;;;1.27;0.98;;;;;;;11.45;35.80;93002.06;4937794;29;20411;-78
2023/11/23 10:03:33;;;;;;;1.30;0.98;;;;;;;11.53;35.28;93000.66;4954155;29;20035;-79
2023/11/23 10:06:00;;;;;;;1.75;0.93;;;;;;;11.41;36.23;92993.97;4947844;29;20038;-79
2023/11/23 10:08:27;;;;;;;1.23;0.93;;;;;;;11.35;35.93;92989.84;4934507;29;20046;-79
2023/11/23 10:10:53;;;;;;;2.30;1.10;;;;;;;11.09;37.23;92985.91;4954048;29;20126;-79
2023/11/23 10:13:21;;;;;;;0.88;0.77;;;;;;;11.11;35.56;92984.59;4937995;28;20680;-78
2023/11/23 10:15:47;;;;;;;1.83;1.13;;;;;;;10.95;34.45;92975.31;4946202;29;20059;-78
2023/11/23 10:18:13;;;;;;;1.17;1.00;;;;;;;11.21;34.33;92975.84;4949036;28;20035;-78
2023/11/23 10:20:45;;;;;;;0.63;0.63;;;;;;;11.41;30.65;92973.00;4946732;29;20051;-78
2023/11/23 10:23:13;;;;;;;4.82;1.05;;;;;;;11.42;30.57;92969.34;4937008;29;20134;-78
2023/11/23 10:25:41;;;;;;;0.75;0.75;;;;;;;11.48;30.72;92971.88;4955115;29;20445;-79
2023/11/23 10:28:07;;;;;;;1.35;0.80;;;;;;;11.32;30.87;92969.44;4956029;29;20035;-78
2023/11/23 10:30:36;;;;;;;0.98;0.88;;;;;;;11.35;31.21;92963.66;4955399;29;20031;-78
2023/11/23 10:33:04;;;;;;;0.77;0.77;;;;;;;11.13;31.57;92958.13;4943511;29;20095;-78
2023/11/23 10:35:50;;;;;;;0.70;0.70;;;;;;;10.90;32.26;92957.81;4950213;29;20042;-78
2023/11/23 10:38:16;;;;;;;0.95;0.80;;;;;;;10.78;33.02;92949.53;4946861;29;20070;-78
2023/11/23 10:40:42;;;;;;;1.05;0.88;;;;;;;10.84;33.55;92948.44;4937061;29;20035;-78
2023/11/23 10:43:12;;;;;;;0.95;0.90;;;;;;;10.95;33.12;92942.03;4946924;29;20071;-79
2023/11/23 10:45:39;;;;;;;1.05;0.82;;;;;;;10.89;32.71;92953.59;4953021;28;20035;-78
2023/11/23 10:48:05;;;;;;;0.63;0.63;;;;;;;10.99;32.98;92943.03;4953601;28;20527;-80
2023/11/23 10:50:33;;;;;;;0.80;0.80;;;;;;;11.18;34.10;92947.56;4952497;29;20031;-80
2023/11/23 10:53:01;;;;;;;3.60;0.88;;;;;;;11.23;32.93;92940.44;4933745;29;20039;-79
2023/11/23 10:55:26;;;;;;;0.80;0.77;;;;;;;11.66;32.11;92939.69;4950021;28;20035;-79
2023/11/23 10:58:01;;;;;;;1.58;0.85;;;;;;;11.80;32.63;92935.34;4937151;29;20046;-79
2023/11/23 11:00:28;;;;;;;1.20;1.10;;;;;;;12.19;32.27;92933.53;4953086;28;20114;-80
2023/11/23 11:03:04;;;;;;;1.63;0.90;;;;;;;12.29;32.53;92931.53;4936862;29;20027;-79
2023/11/23 11:05:34;;;;;;;1.42;1.00;;;;;;;12.36;32.21;92930.38;4952855;29;20098;-79
2023/11/23 11:08:07;;;;;;;1.38;1.00;;;;;;;12.04;34.07;92924.00;4937056;29;20043;-80
2023/11/23 11:10:42;;;;;;;0.90;0.90;;;;;;;11.93;33.66;92917.34;4947952;29;20039;-78
2023/11/23 11:13:12;;;;;;;1.02;0.90;;;;;;;11.93;34.24;92925.22;4931800;29;20165;-78
2023/11/23 11:15:48;;;;;;;1.25;0.93;;;;;;;12.00;35.16;92899.41;4953210;29;20055;-78
2023/11/23 11:18:20;;;;;;;1.02;0.93;;;;;;;11.95;36.09;92908.13;4948309;29;20034;-80
2023/11/23 11:21:12;;;;;;;1.15;0.90;;;;;;;12.20;35.60;92904.34;4951581;29;20039;-79
2023/11/23 11:23:40;;;;;;;0.95;0.80;;;;;;;12.36;36.35;92901.50;4949473;28;20114;-79
2023/11/23 11:26:10;;;;;;;1.05;0.90;;;;;;;12.36;34.52;92897.06;4951106;29;20038;-79
2023/11/23 11:28:37;;;;;;;2.22;1.10;;;;;;;12.54;32.72;92892.84;4936681;29;20257;-79
2023/11/23 11:31:13;;;;;;;1.25;1.00;;;;;;;12.71;30.89;92890.41;4944118;29;20024;-79
2023/11/23 11:33:39;;;;;;;1.10;0.90;;;;;;;13.09;30.72;92885.03;4945199;29;20043;-79
2023/11/23 11:36:09;;;;;;;1.35;0.90;;;;;;;13.20;29.56;92877.72;4953295;29;20570;-79